sensor_id;sensor_type;location;lat;lon;timestamp;pressure;altitude;pressure_sealevel;temperature;humidity
49915;BME280;35806;47.958;13.158;2023-03-15T00:00:07;93972.63;;;0.55;72.43
49915;BME280;35806;47.958;13.158;2023-03-15T00:02:35;93969.73;;;0.25;72.06
49915;BME280;35806;47.958;13.158;2023-03-15T00:05:03;93962.16;;;0.03;72.98
49915;BME280;35806;47.958;13.158;2023-03-15T00:07:30;93965.60;;;0.35;72.73
49915;BME280;35806;47.958;13.158;2023-03-15T00:09:58;93966.14;;;0.47;72.08
49915;BME280;35806;47.958;13.158;2023-03-15T00:12:27;93964.92;;;1.14;70.06
49915;BME280;35806;47.958;13.158;2023-03-15T00:14:55;93966.86;;;0.86;70.53
49915;BME280;35806;47.958;13.158;2023-03-15T00:17:23;93964.61;;;0.77;69.29
49915;BME280;35806;47.958;13.158;2023-03-15T00:19:51;93964.70;;;0.58;68.77
49915;BME280;35806;47.958;13.158;2023-03-15T00:22:18;93965.32;;;1.17;69.21
49915;BME280;35806;47.958;13.158;2023-03-15T00:24:45;93962.99;;;1.25;67.35
49915;BME280;35806;47.958;13.158;2023-03-15T00:27:13;93959.09;;;0.02;71.13
49915;BME280;35806;47.958;13.158;2023-03-15T00:29:40;93959.79;;;0.75;68.42
49915;BME280;35806;47.958;13.158;2023-03-15T00:32:07;93951.40;;;0.86;68.58
49915;BME280;35806;47.958;13.158;2023-03-15T00:34:35;93957.74;;;0.68;68.01
49915;BME280;35806;47.958;13.158;2023-03-15T00:37:03;93956.63;;;0.66;67.93
49915;BME280;35806;47.958;13.158;2023-03-15T00:39:30;93952.72;;;0.66;68.86
49915;BME280;35806;47.958;13.158;2023-03-15T00:41:57;93954.22;;;1.21;67.23
49915;BME280;35806;47.958;13.158;2023-03-15T00:44:25;93951.43;;;0.43;68.48
49915;BME280;35806;47.958;13.158;2023-03-15T00:46:52;93946.58;;;0.66;67.39
49915;BME280;35806;47.958;13.158;2023-03-15T00:49:19;93933.58;;;0.64;66.77
49915;BME280;35806;47.958;13.158;2023-03-15T00:51:46;93931.32;;;1.19;65.41
49915;BME280;35806;47.958;13.158;2023-03-15T00:54:14;93930.70;;;1.57;63.88
49915;BME280;35806;47.958;13.158;2023-03-15T00:56:41;93926.29;;;1.13;64.74
49915;BME280;35806;47.958;13.158;2023-03-15T00:59:09;93932.54;;;0.59;64.75
49915;BME280;35806;47.958;13.158;2023-03-15T01:01:37;93934.94;;;0.84;64.92
49915;BME280;35806;47.958;13.158;2023-03-15T01:04:05;93934.88;;;-0.31;69.09
49915;BME280;35806;47.958;13.158;2023-03-15T01:06:32;93937.93;;;0.34;67.85
49915;BME280;35806;47.958;13.158;2023-03-15T01:08:59;93932.58;;;0.94;65.68
49915;BME280;35806;47.958;13.158;2023-03-15T01:11:27;93932.20;;;1.35;64.29
49915;BME280;35806;47.958;13.158;2023-03-15T01:13:56;93930.67;;;0.67;66.77
49915;BME280;35806;47.958;13.158;2023-03-15T01:16:25;93935.04;;;0.83;65.71
49915;BME280;35806;47.958;13.158;2023-03-15T01:18:53;93938.09;;;1.40;63.00
49915;BME280;35806;47.958;13.158;2023-03-15T01:21:21;93935.73;;;1.51;63.94
49915;BME280;35806;47.958;13.158;2023-03-15T01:23:49;93935.47;;;-0.01;66.16
49915;BME280;35806;47.958;13.158;2023-03-15T01:26:17;93935.79;;;0.43;66.13
49915;BME280;35806;47.958;13.158;2023-03-15T01:28:44;93928.15;;;1.01;64.68
49915;BME280;35806;47.958;13.158;2023-03-15T01:31:17;93928.55;;;-0.31;68.40
49915;BME280;35806;47.958;13.158;2023-03-15T01:33:44;93923.51;;;-0.68;69.90
49915;BME280;35806;47.958;13.158;2023-03-15T01:36:12;93927.58;;;0.39;65.47
49915;BME280;35806;47.958;13.158;2023-03-15T01:38:40;93916.63;;;1.02;63.86
49915;BME280;35806;47.958;13.158;2023-03-15T01:41:09;93911.71;;;0.39;65.28
49915;BME280;35806;47.958;13.158;2023-03-15T01:43:37;93907.95;;;1.99;61.15
49915;BME280;35806;47.958;13.158;2023-03-15T01:46:13;93895.72;;;0.74;64.77
49915;BME280;35806;47.958;13.158;2023-03-15T01:48:47;93896.67;;;1.52;62.43
49915;BME280;35806;47.958;13.158;2023-03-15T01:51:18;93905.11;;;1.17;64.18
49915;BME280;35806;47.958;13.158;2023-03-15T01:53:49;93904.39;;;0.85;64.43
49915;BME280;35806;47.958;13.158;2023-03-15T01:56:19;93908.72;;;-0.22;67.12
49915;BME280;35806;47.958;13.158;2023-03-15T01:58:47;93909.78;;;0.06;65.67
49915;BME280;35806;47.958;13.158;2023-03-15T02:15:32;93885.19;;;0.01;63.92
49915;BME280;35806;47.958;13.158;2023-03-15T02:17:59;93898.88;;;0.82;64.46
49915;BME280;35806;47.958;13.158;2023-03-15T02:20:34;93896.11;;;0.13;67.21
49915;BME280;35806;47.958;13.158;2023-03-15T02:23:06;93908.67;;;-0.65;69.96
49915;BME280;35806;47.958;13.158;2023-03-15T02:25:40;93918.96;;;-1.47;73.91
49915;BME280;35806;47.958;13.158;2023-03-15T02:28:11;93922.19;;;-1.74;79.20
49915;BME280;35806;47.958;13.158;2023-03-15T02:30:40;93925.62;;;-2.10;81.70
49915;BME280;35806;47.958;13.158;2023-03-15T02:33:11;93928.22;;;-1.98;80.86
49915;BME280;35806;47.958;13.158;2023-03-15T02:35:41;93925.59;;;-1.32;80.67
49915;BME280;35806;47.958;13.158;2023-03-15T02:38:08;93921.98;;;-1.83;80.12
49915;BME280;35806;47.958;13.158;2023-03-15T02:40:35;93920.99;;;-2.09;80.49
49915;BME280;35806;47.958;13.158;2023-03-15T02:43:06;93913.51;;;-1.11;78.24
49915;BME280;35806;47.958;13.158;2023-03-15T02:45:36;93918.65;;;-1.23;77.78
49915;BME280;35806;47.958;13.158;2023-03-15T02:48:05;93934.98;;;-1.31;78.23
49915;BME280;35806;47.958;13.158;2023-03-15T02:50:33;93940.61;;;-2.00;80.34
49915;BME280;35806;47.958;13.158;2023-03-15T02:52:59;93941.02;;;-1.71;80.93
49915;BME280;35806;47.958;13.158;2023-03-15T02:55:26;93945.37;;;-1.74;80.36
49915;BME280;35806;47.958;13.158;2023-03-15T02:57:53;93970.80;;;-1.75;80.00
49915;BME280;35806;47.958;13.158;2023-03-15T03:00:20;93980.79;;;-2.59;82.06
49915;BME280;35806;47.958;13.158;2023-03-15T03:02:48;93996.08;;;-2.62;83.33
49915;BME280;35806;47.958;13.158;2023-03-15T03:05:15;93998.71;;;-2.95;84.52
49915;BME280;35806;47.958;13.158;2023-03-15T03:07:43;93993.87;;;-3.14;84.23
49915;BME280;35806;47.958;13.158;2023-03-15T03:10:14;93992.32;;;-2.77;83.31
49915;BME280;35806;47.958;13.158;2023-03-15T03:12:43;93988.98;;;-3.42;85.87
49915;BME280;35806;47.958;13.158;2023-03-15T03:15:10;94000.89;;;-3.66;86.55
49915;BME280;35806;47.958;13.158;2023-03-15T03:17:38;94015.84;;;-3.15;85.80
49915;BME280;35806;47.958;13.158;2023-03-15T03:20:07;94024.51;;;-2.15;81.13
49915;BME280;35806;47.958;13.158;2023-03-15T03:22:36;94031.97;;;-2.06;81.20
49915;BME280;35806;47.958;13.158;2023-03-15T03:25:04;94038.84;;;-1.63;78.92
49915;BME280;35806;47.958;13.158;2023-03-15T03:27:33;94043.16;;;-1.62;78.09
49915;BME280;35806;47.958;13.158;2023-03-15T03:30:01;94041.94;;;-1.53;79.28
49915;BME280;35806;47.958;13.158;2023-03-15T03:32:29;94048.24;;;-1.16;76.56
49915;BME280;35806;47.958;13.158;2023-03-15T03:34:56;94051.42;;;-1.44;76.52
49915;BME280;35806;47.958;13.158;2023-03-15T03:37:23;94055.09;;;-1.75;78.58
49915;BME280;35806;47.958;13.158;2023-03-15T03:39:50;94061.90;;;-1.39;79.06
49915;BME280;35806;47.958;13.158;2023-03-15T03:42:17;94063.31;;;-1.68;78.35
49915;BME280;35806;47.958;13.158;2023-03-15T03:44:43;94066.34;;;-1.39;77.20
49915;BME280;35806;47.958;13.158;2023-03-15T03:47:10;94068.82;;;-1.52;77.61
49915;BME280;35806;47.958;13.158;2023-03-15T03:49:38;94076.52;;;-1.66;76.89
49915;BME280;35806;47.958;13.158;2023-03-15T03:52:05;94081.64;;;-2.32;80.43
49915;BME280;35806;47.958;13.158;2023-03-15T03:54:33;94082.94;;;-2.23;79.78
49915;BME280;35806;47.958;13.158;2023-03-15T03:57:00;94085.63;;;-1.82;79.56
49915;BME280;35806;47.958;13.158;2023-03-15T03:59:29;94082.78;;;-1.51;78.29
49915;BME280;35806;47.958;13.158;2023-03-15T04:01:56;94092.95;;;-2.31;81.67
49915;BME280;35806;47.958;13.158;2023-03-15T04:04:23;94092.40;;;-2.25;81.64
49915;BME280;35806;47.958;13.158;2023-03-15T04:06:50;94087.24;;;-1.32;79.13
49915;BME280;35806;47.958;13.158;2023-03-15T04:09:17;94095.17;;;-1.02;78.18
49915;BME280;35806;47.958;13.158;2023-03-15T04:11:44;94107.65;;;-2.16;81.92
49915;BME280;35806;47.958;13.158;2023-03-15T04:14:13;94099.97;;;-1.94;83.56
49915;BME280;35806;47.958;13.158;2023-03-15T04:16:41;94103.14;;;-2.17;82.49
49915;BME280;35806;47.958;13.158;2023-03-15T04:19:08;94103.36;;;-1.56;79.34
49915;BME280;35806;47.958;13.158;2023-03-15T04:21:36;94109.43;;;-1.87;80.91
49915;BME280;35806;47.958;13.158;2023-03-15T04:24:04;94102.41;;;-0.80;76.04
49915;BME280;35806;47.958;13.158;2023-03-15T04:26:32;94113.79;;;-2.52;80.73
49915;BME280;35806;47.958;13.158;2023-03-15T04:28:59;94111.91;;;-1.34;76.91
49915;BME280;35806;47.958;13.158;2023-03-15T04:31:26;94111.21;;;-1.06;75.86
49915;BME280;35806;47.958;13.158;2023-03-15T04:33:54;94112.61;;;-0.61;73.60
49915;BME280;35806;47.958;13.158;2023-03-15T04:36:21;94120.07;;;-1.87;78.80
49915;BME280;35806;47.958;13.158;2023-03-15T04:38:49;94123.02;;;-2.61;82.08
49915;BME280;35806;47.958;13.158;2023-03-15T04:41:17;94121.59;;;-2.82;83.14
49915;BME280;35806;47.958;13.158;2023-03-15T04:43:45;94126.06;;;-1.58;78.76
49915;BME280;35806;47.958;13.158;2023-03-15T04:46:12;94138.39;;;-3.09;83.41
49915;BME280;35806;47.958;13.158;2023-03-15T04:48:40;94130.90;;;-1.88;80.31
49915;BME280;35806;47.958;13.158;2023-03-15T04:51:07;94133.07;;;-2.46;84.25
49915;BME280;35806;47.958;13.158;2023-03-15T04:53:34;94143.05;;;-2.72;85.01
49915;BME280;35806;47.958;13.158;2023-03-15T04:56:01;94150.32;;;-3.16;89.19
49915;BME280;35806;47.958;13.158;2023-03-15T04:58:29;94140.11;;;-2.93;89.16
49915;BME280;35806;47.958;13.158;2023-03-15T05:00:56;94151.55;;;-2.20;83.39
49915;BME280;35806;47.958;13.158;2023-03-15T05:03:23;94156.80;;;-1.53;81.46
49915;BME280;35806;47.958;13.158;2023-03-15T05:05:50;94156.91;;;-2.63;83.10
49915;BME280;35806;47.958;13.158;2023-03-15T05:08:17;94164.92;;;-2.75;83.90
49915;BME280;35806;47.958;13.158;2023-03-15T05:10:44;94172.89;;;-2.27;81.83
49915;BME280;35806;47.958;13.158;2023-03-15T05:13:11;94178.41;;;-3.47;86.63
49915;BME280;35806;47.958;13.158;2023-03-15T05:15:38;94185.70;;;-3.58;88.21
49915;BME280;35806;47.958;13.158;2023-03-15T05:18:05;94194.63;;;-3.95;90.96
49915;BME280;35806;47.958;13.158;2023-03-15T05:20:33;94210.65;;;-4.24;90.76
49915;BME280;35806;47.958;13.158;2023-03-15T05:23:00;94221.93;;;-4.07;93.30
49915;BME280;35806;47.958;13.158;2023-03-15T05:25:26;94229.62;;;-3.95;92.28
49915;BME280;35806;47.958;13.158;2023-03-15T05:27:54;94252.88;;;-4.10;93.40
49915;BME280;35806;47.958;13.158;2023-03-15T05:30:21;94261.47;;;-3.62;90.86
49915;BME280;35806;47.958;13.158;2023-03-15T05:32:48;94272.99;;;-3.84;90.25
49915;BME280;35806;47.958;13.158;2023-03-15T05:35:15;94282.15;;;-3.73;88.72
49915;BME280;35806;47.958;13.158;2023-03-15T05:37:42;94286.24;;;-3.91;86.54
49915;BME280;35806;47.958;13.158;2023-03-15T05:40:10;94293.73;;;-3.37;84.73
49915;BME280;35806;47.958;13.158;2023-03-15T05:42:37;94303.55;;;-3.97;84.75
49915;BME280;35806;47.958;13.158;2023-03-15T05:45:05;94315.02;;;-3.44;84.47
49915;BME280;35806;47.958;13.158;2023-03-15T05:47:33;94326.81;;;-3.81;82.84
49915;BME280;35806;47.958;13.158;2023-03-15T05:50:01;94330.96;;;-3.59;83.38
49915;BME280;35806;47.958;13.158;2023-03-15T05:52:29;94342.53;;;-3.52;83.69
49915;BME280;35806;47.958;13.158;2023-03-15T05:54:56;94353.81;;;-3.36;83.84
49915;BME280;35806;47.958;13.158;2023-03-15T05:57:24;94360.18;;;-4.20;84.59
49915;BME280;35806;47.958;13.158;2023-03-15T05:59:51;94381.81;;;-4.44;86.02
49915;BME280;35806;47.958;13.158;2023-03-15T06:02:18;94390.53;;;-3.69;85.00
49915;BME280;35806;47.958;13.158;2023-03-15T06:04:45;94396.92;;;-3.95;85.42
49915;BME280;35806;47.958;13.158;2023-03-15T06:07:11;94400.13;;;-3.63;84.72
49915;BME280;35806;47.958;13.158;2023-03-15T06:09:39;94412.29;;;-3.80;85.14
49915;BME280;35806;47.958;13.158;2023-03-15T06:12:06;94420.10;;;-3.66;84.90
49915;BME280;35806;47.958;13.158;2023-03-15T06:14:34;94427.06;;;-3.84;84.70
49915;BME280;35806;47.958;13.158;2023-03-15T06:17:01;94436.80;;;-4.04;85.04
49915;BME280;35806;47.958;13.158;2023-03-15T06:19:29;94444.50;;;-4.34;85.30
49915;BME280;35806;47.958;13.158;2023-03-15T06:21:56;94446.36;;;-4.05;85.66
49915;BME280;35806;47.958;13.158;2023-03-15T06:24:24;94454.82;;;-3.73;84.72
49915;BME280;35806;47.958;13.158;2023-03-15T06:26:52;94459.85;;;-4.13;84.70
49915;BME280;35806;47.958;13.158;2023-03-15T06:29:19;94468.84;;;-3.67;84.85
49915;BME280;35806;47.958;13.158;2023-03-15T06:31:47;94480.48;;;-4.03;86.47
49915;BME280;35806;47.958;13.158;2023-03-15T06:34:14;94485.43;;;-4.09;88.10
49915;BME280;35806;47.958;13.158;2023-03-15T06:36:42;94500.37;;;-4.35;88.42
49915;BME280;35806;47.958;13.158;2023-03-15T06:39:10;94505.56;;;-4.25;89.87
49915;BME280;35806;47.958;13.158;2023-03-15T06:41:38;94518.22;;;-4.31;88.07
49915;BME280;35806;47.958;13.158;2023-03-15T06:44:10;94522.05;;;-3.64;86.07
49915;BME280;35806;47.958;13.158;2023-03-15T06:46:37;94533.70;;;-3.59;83.73
49915;BME280;35806;47.958;13.158;2023-03-15T06:49:05;94537.55;;;-3.74;83.85
49915;BME280;35806;47.958;13.158;2023-03-15T06:51:33;94540.49;;;-3.99;83.08
49915;BME280;35806;47.958;13.158;2023-03-15T06:54:00;94548.30;;;-3.83;83.09
49915;BME280;35806;47.958;13.158;2023-03-15T06:56:28;94544.66;;;-3.39;82.13
49915;BME280;35806;47.958;13.158;2023-03-15T06:58:55;94547.66;;;-3.51;82.05
49915;BME280;35806;47.958;13.158;2023-03-15T07:01:22;94550.40;;;-3.46;83.38
49915;BME280;35806;47.958;13.158;2023-03-15T07:03:49;94556.28;;;-3.27;83.85
49915;BME280;35806;47.958;13.158;2023-03-15T07:06:16;94559.58;;;-3.58;83.17
49915;BME280;35806;47.958;13.158;2023-03-15T07:08:43;94557.70;;;-2.87;80.87
49915;BME280;35806;47.958;13.158;2023-03-15T07:11:12;94566.61;;;-3.02;80.91
49915;BME280;35806;47.958;13.158;2023-03-15T07:13:40;94568.85;;;-2.72;80.47
49915;BME280;35806;47.958;13.158;2023-03-15T07:16:07;94575.74;;;-2.93;81.25
49915;BME280;35806;47.958;13.158;2023-03-15T07:18:34;94575.33;;;-3.29;82.14
49915;BME280;35806;47.958;13.158;2023-03-15T07:21:04;94576.15;;;-3.06;81.76
49915;BME280;35806;47.958;13.158;2023-03-15T07:23:32;94582.47;;;-4.20;84.78
49915;BME280;35806;47.958;13.158;2023-03-15T07:25:59;94586.40;;;-3.09;84.37
49915;BME280;35806;47.958;13.158;2023-03-15T07:28:27;94595.86;;;-3.35;84.69
49915;BME280;35806;47.958;13.158;2023-03-15T07:30:56;94598.39;;;-3.56;84.27
49915;BME280;35806;47.958;13.158;2023-03-15T07:33:25;94599.46;;;-3.14;84.65
49915;BME280;35806;47.958;13.158;2023-03-15T07:35:53;94603.79;;;-3.77;85.60
49915;BME280;35806;47.958;13.158;2023-03-15T07:38:21;94606.89;;;-3.33;85.19
49915;BME280;35806;47.958;13.158;2023-03-15T07:40:49;94610.89;;;-3.51;86.08
49915;BME280;35806;47.958;13.158;2023-03-15T07:43:17;94616.60;;;-3.38;85.60
49915;BME280;35806;47.958;13.158;2023-03-15T07:45:44;94615.25;;;-3.31;84.97
49915;BME280;35806;47.958;13.158;2023-03-15T07:48:12;94618.26;;;-3.19;82.28
49915;BME280;35806;47.958;13.158;2023-03-15T07:50:39;94623.59;;;-3.15;83.54
49915;BME280;35806;47.958;13.158;2023-03-15T07:53:07;94625.90;;;-2.77;82.39
49915;BME280;35806;47.958;13.158;2023-03-15T07:55:34;94625.28;;;-3.74;84.50
49915;BME280;35806;47.958;13.158;2023-03-15T07:58:02;94628.28;;;-3.46;85.00
49915;BME280;35806;47.958;13.158;2023-03-15T08:00:31;94632.14;;;-3.56;84.37
49915;BME280;35806;47.958;13.158;2023-03-15T08:02:59;94635.53;;;-3.47;85.27
49915;BME280;35806;47.958;13.158;2023-03-15T08:05:27;94632.76;;;-4.04;87.20
49915;BME280;35806;47.958;13.158;2023-03-15T08:07:54;94637.24;;;-3.74;86.40
49915;BME280;35806;47.958;13.158;2023-03-15T08:10:21;94639.63;;;-3.43;85.47
49915;BME280;35806;47.958;13.158;2023-03-15T08:12:49;94641.95;;;-3.65;85.75
49915;BME280;35806;47.958;13.158;2023-03-15T08:15:17;94638.56;;;-3.67;85.09
49915;BME280;35806;47.958;13.158;2023-03-15T08:17:47;94639.10;;;-3.31;84.45
49915;BME280;35806;47.958;13.158;2023-03-15T08:20:15;94639.48;;;-3.15;83.06
49915;BME280;35806;47.958;13.158;2023-03-15T08:22:43;94642.58;;;-3.34;82.69
49915;BME280;35806;47.958;13.158;2023-03-15T08:25:12;94644.42;;;-3.60;85.53
49915;BME280;35806;47.958;13.158;2023-03-15T08:27:39;94647.40;;;-3.15;83.56
49915;BME280;35806;47.958;13.158;2023-03-15T08:30:07;94651.93;;;-3.74;84.88
49915;BME280;35806;47.958;13.158;2023-03-15T08:32:35;94649.69;;;-4.05;85.96
49915;BME280;35806;47.958;13.158;2023-03-15T08:35:02;94650.94;;;-3.77;85.81
49915;BME280;35806;47.958;13.158;2023-03-15T08:37:30;94654.97;;;-3.67;84.55
49915;BME280;35806;47.958;13.158;2023-03-15T08:39:58;94657.29;;;-3.85;85.68
49915;BME280;35806;47.958;13.158;2023-03-15T08:42:25;94663.77;;;-3.52;82.96
49915;BME280;35806;47.958;13.158;2023-03-15T08:44:53;94658.96;;;-4.00;84.84
49915;BME280;35806;47.958;13.158;2023-03-15T08:47:20;94666.39;;;-4.16;86.31
49915;BME280;35806;47.958;13.158;2023-03-15T08:49:47;94667.48;;;-3.65;84.46
49915;BME280;35806;47.958;13.158;2023-03-15T08:52:14;94675.88;;;-3.17;82.13
49915;BME280;35806;47.958;13.158;2023-03-15T08:54:41;94675.47;;;-3.89;83.62
49915;BME280;35806;47.958;13.158;2023-03-15T08:57:08;94677.68;;;-3.45;80.19
49915;BME280;35806;47.958;13.158;2023-03-15T08:59:36;94678.86;;;-3.70;79.24
49915;BME280;35806;47.958;13.158;2023-03-15T09:02:04;94679.24;;;-3.46;79.45
49915;BME280;35806;47.958;13.158;2023-03-15T09:04:36;94684.03;;;-3.76;79.57
49915;BME280;35806;47.958;13.158;2023-03-15T09:07:03;94682.46;;;-3.14;80.32
49915;BME280;35806;47.958;13.158;2023-03-15T09:09:31;94686.55;;;-3.65;79.94
49915;BME280;35806;47.958;13.158;2023-03-15T09:11:59;94688.22;;;-3.75;80.41
49915;BME280;35806;47.958;13.158;2023-03-15T09:14:27;94686.47;;;-3.81;81.46
49915;BME280;35806;47.958;13.158;2023-03-15T09:16:54;94687.23;;;-2.81;79.03
49915;BME280;35806;47.958;13.158;2023-03-15T09:19:21;94687.57;;;-2.98;78.30
49915;BME280;35806;47.958;13.158;2023-03-15T09:21:48;94693.94;;;-2.66;77.25
49915;BME280;35806;47.958;13.158;2023-03-15T09:24:15;94694.73;;;-3.41;78.97
49915;BME280;35806;47.958;13.158;2023-03-15T09:26:43;94689.30;;;-3.54;79.05
49915;BME280;35806;47.958;13.158;2023-03-15T09:29:11;94688.37;;;-3.84;79.68
49915;BME280;35806;47.958;13.158;2023-03-15T09:31:39;94687.75;;;-4.12;78.33
49915;BME280;35806;47.958;13.158;2023-03-15T09:34:06;94693.55;;;-4.06;80.22
49915;BME280;35806;47.958;13.158;2023-03-15T09:36:33;94691.75;;;-3.88;80.79
49915;BME280;35806;47.958;13.158;2023-03-15T09:39:00;94696.00;;;-3.34;77.58
49915;BME280;35806;47.958;13.158;2023-03-15T09:41:39;94698.20;;;-3.50;79.52
49915;BME280;35806;47.958;13.158;2023-03-15T09:44:15;94701.23;;;-3.58;79.12
49915;BME280;35806;47.958;13.158;2023-03-15T09:47:02;94702.90;;;-3.16;78.43
49915;BME280;35806;47.958;13.158;2023-03-15T09:49:39;94707.68;;;-3.68;77.42
49915;BME280;35806;47.958;13.158;2023-03-15T09:52:18;94706.83;;;-3.74;77.45
49915;BME280;35806;47.958;13.158;2023-03-15T09:54:51;94707.59;;;-3.74;78.22
49915;BME280;35806;47.958;13.158;2023-03-15T09:57:24;94705.39;;;-3.74;77.95
49915;BME280;35806;47.958;13.158;2023-03-15T09:59:56;94702.14;;;-4.03;77.88
49915;BME280;35806;47.958;13.158;2023-03-15T10:02:27;94704.40;;;-3.91;78.61
49915;BME280;35806;47.958;13.158;2023-03-15T10:04:58;94702.81;;;-3.88;77.01
49915;BME280;35806;47.958;13.158;2023-03-15T10:07:27;94698.51;;;-2.63;75.37
49915;BME280;35806;47.958;13.158;2023-03-15T10:09:55;94700.84;;;-1.98;70.48
49915;BME280;35806;47.958;13.158;2023-03-15T10:12:28;94698.86;;;-2.02;71.53
49915;BME280;35806;47.958;13.158;2023-03-15T10:15:07;94695.45;;;-1.88;71.85
49915;BME280;35806;47.958;13.158;2023-03-15T10:17:51;94694.82;;;-1.77;70.45
49915;BME280;35806;47.958;13.158;2023-03-15T10:20:26;94695.20;;;-1.08;71.51
49915;BME280;35806;47.958;13.158;2023-03-15T10:22:58;94705.42;;;-2.72;72.84
49915;BME280;35806;47.958;13.158;2023-03-15T10:25:31;94701.23;;;-1.84;71.55
49915;BME280;35806;47.958;13.158;2023-03-15T10:28:02;94693.85;;;-1.82;71.65
49915;BME280;35806;47.958;13.158;2023-03-15T10:30:33;94690.56;;;-1.47;69.73
49915;BME280;35806;47.958;13.158;2023-03-15T10:33:03;94698.78;;;-2.41;70.99
49915;BME280;35806;47.958;13.158;2023-03-15T10:35:31;94693.75;;;-2.31;70.16
49915;BME280;35806;47.958;13.158;2023-03-15T10:37:59;94692.17;;;-2.16;68.94
49915;BME280;35806;47.958;13.158;2023-03-15T10:40:43;94694.41;;;-2.37;67.88
49915;BME280;35806;47.958;13.158;2023-03-15T10:43:17;94693.75;;;-2.49;69.46
49915;BME280;35806;47.958;13.158;2023-03-15T10:45:56;94685.82;;;-1.78;68.39
49915;BME280;35806;47.958;13.158;2023-03-15T10:48:25;94681.27;;;-0.91;68.40
49915;BME280;35806;47.958;13.158;2023-03-15T10:50:54;94680.05;;;0.95;62.08
49915;BME280;35806;47.958;13.158;2023-03-15T10:53:21;94676.66;;;0.17;64.40
49915;BME280;35806;47.958;13.158;2023-03-15T10:55:48;94678.29;;;0.42;60.79
49915;BME280;35806;47.958;13.158;2023-03-15T10:58:26;94674.19;;;1.02;64.44
49915;BME280;35806;47.958;13.158;2023-03-15T11:00:59;94678.47;;;1.04;60.96
49915;BME280;35806;47.958;13.158;2023-03-15T11:03:28;94676.35;;;0.89;63.01
49915;BME280;35806;47.958;13.158;2023-03-15T11:05:57;94690.43;;;-0.82;64.65
49915;BME280;35806;47.958;13.158;2023-03-15T11:08:35;94686.86;;;-0.20;60.76
49915;BME280;35806;47.958;13.158;2023-03-15T11:11:04;94686.10;;;-0.21;60.71
49915;BME280;35806;47.958;13.158;2023-03-15T11:13:33;94693.97;;;-1.26;63.29
49915;BME280;35806;47.958;13.158;2023-03-15T11:16:04;94686.11;;;-1.36;66.91
49915;BME280;35806;47.958;13.158;2023-03-15T11:18:35;94684.00;;;-0.80;62.92
49915;BME280;35806;47.958;13.158;2023-03-15T11:21:07;94692.86;;;-0.43;64.64
49915;BME280;35806;47.958;13.158;2023-03-15T11:23:36;94695.56;;;-1.13;63.54
49915;BME280;35806;47.958;13.158;2023-03-15T11:26:05;94693.20;;;-0.51;62.31
49915;BME280;35806;47.958;13.158;2023-03-15T11:28:35;94690.94;;;-0.51;64.74
49915;BME280;35806;47.958;13.158;2023-03-15T11:31:04;94700.34;;;-0.69;62.67
49915;BME280;35806;47.958;13.158;2023-03-15T11:33:38;94695.31;;;-0.74;64.08
49915;BME280;35806;47.958;13.158;2023-03-15T11:36:14;94688.92;;;0.26;64.22
49915;BME280;35806;47.958;13.158;2023-03-15T11:38:44;94691.16;;;0.20;61.51
49915;BME280;35806;47.958;13.158;2023-03-15T11:41:21;94693.22;;;-0.52;59.97
49915;BME280;35806;47.958;13.158;2023-03-15T11:43:58;94692.14;;;-0.72;63.24
49915;BME280;35806;47.958;13.158;2023-03-15T11:46:32;94682.28;;;0.01;63.34
49915;BME280;35806;47.958;13.158;2023-03-15T11:49:03;94685.78;;;0.70;57.95
49915;BME280;35806;47.958;13.158;2023-03-15T11:51:36;94686.03;;;1.44;58.61
49915;BME280;35806;47.958;13.158;2023-03-15T11:54:08;94686.35;;;1.80;56.21
49915;BME280;35806;47.958;13.158;2023-03-15T11:56:49;94687.75;;;0.34;55.09
49915;BME280;35806;47.958;13.158;2023-03-15T11:59:19;94683.15;;;0.92;57.42
49915;BME280;35806;47.958;13.158;2023-03-15T12:01:49;94683.91;;;0.67;55.69
49915;BME280;35806;47.958;13.158;2023-03-15T12:04:40;94685.48;;;-0.05;53.58
49915;BME280;35806;47.958;13.158;2023-03-15T12:07:28;94682.81;;;-0.06;55.18
49915;BME280;35806;47.958;13.158;2023-03-15T12:09:57;94681.10;;;-0.72;55.97
49915;BME280;35806;47.958;13.158;2023-03-15T12:12:57;94684.54;;;-0.63;57.19
49915;BME280;35806;47.958;13.158;2023-03-15T12:15:44;94687.75;;;-1.88;60.43
49915;BME280;35806;47.958;13.158;2023-03-15T12:18:15;94675.97;;;-0.45;55.72
49915;BME280;35806;47.958;13.158;2023-03-15T12:20:49;94670.99;;;-0.22;56.57
49915;BME280;35806;47.958;13.158;2023-03-15T12:23:30;94664.85;;;1.17;55.49
49915;BME280;35806;47.958;13.158;2023-03-15T12:26:05;94661.18;;;1.63;53.62
49915;BME280;35806;47.958;13.158;2023-03-15T12:28:35;94650.12;;;3.07;52.14
49915;BME280;35806;47.958;13.158;2023-03-15T12:31:06;94645.27;;;3.95;46.40
49915;BME280;35806;47.958;13.158;2023-03-15T12:33:43;94645.91;;;4.87;48.51
49915;BME280;35806;47.958;13.158;2023-03-15T12:36:19;94649.10;;;4.48;42.63
49915;BME280;35806;47.958;13.158;2023-03-15T12:39:00;94659.45;;;0.33;48.82
49915;BME280;35806;47.958;13.158;2023-03-15T12:41:45;94655.27;;;0.44;54.19
49915;BME280;35806;47.958;13.158;2023-03-15T12:44:25;94658.59;;;-0.06;54.10
49915;BME280;35806;47.958;13.158;2023-03-15T12:46:56;94656.85;;;0.07;52.19
49915;BME280;35806;47.958;13.158;2023-03-15T12:49:34;94658.55;;;-0.41;54.39
49915;BME280;35806;47.958;13.158;2023-03-15T12:52:05;94657.59;;;1.29;53.03
49915;BME280;35806;47.958;13.158;2023-03-15T12:54:42;94652.92;;;2.88;49.10
49915;BME280;35806;47.958;13.158;2023-03-15T12:57:11;94651.60;;;3.54;48.65
49915;BME280;35806;47.958;13.158;2023-03-15T12:59:44;94646.77;;;1.20;48.11
49915;BME280;35806;47.958;13.158;2023-03-15T13:02:32;94646.40;;;1.78;48.40
49915;BME280;35806;47.958;13.158;2023-03-15T13:05:11;94644.32;;;1.39;46.42
49915;BME280;35806;47.958;13.158;2023-03-15T13:07:49;94643.30;;;0.13;53.76
49915;BME280;35806;47.958;13.158;2023-03-15T13:10:30;94640.70;;;2.36;45.74
49915;BME280;35806;47.958;13.158;2023-03-15T13:13:07;94640.02;;;1.96;46.80
49915;BME280;35806;47.958;13.158;2023-03-15T13:15:41;94641.94;;;0.93;48.97
49915;BME280;35806;47.958;13.158;2023-03-15T13:18:13;94642.47;;;0.71;46.03